Time;durP1;ratioP1;P1;durP2;ratioP2;P2;SDS_P1;SDS_P2;PMS_P1;PMS_P2;Temp;Humidity;BMP_temperature;BMP_pressure;BME280_temperature;BME280_humidity;BME280_pressure;Samples;Min_cycle;Max_cycle;Signal;HPM_P1;HPM_P2
2023/06/01 07:01:25;;;;;;;0.10;0.10;;;17.90;99.90;21.60;102161.00;;;;6278292;22;20187;-74
2023/06/01 07:03:59;;;;;;;0.90;0.90;;;18.90;99.90;22.80;102168.00;;;;6251594;22;20156;-74
2023/06/01 07:06:42;;;;;;;0.70;0.47;;;19.70;99.90;22.00;102186.00;;;;6225767;22;20538;-74
2023/06/01 07:09:33;;;;;;;0.73;0.73;;;19.20;99.90;24.70;102177.00;;;;6251741;22;20558;-73
2023/06/01 07:12:48;;;;;;;1.00;1.00;;;20.50;99.90;24.80;102176.00;;;;6231539;22;20640;-73
2023/06/01 07:15:30;;;;;;;2.35;2.15;;;20.90;99.90;21.40;102238.00;;;;6250495;22;20199;-73
2023/06/01 07:18:33;;;;;;;3.80;1.95;;;20.60;99.90;22.40;102233.00;;;;6254513;22;20147;-73
2023/06/01 07:21:28;;;;;;;0.30;0.30;;;19.60;99.90;23.30;102227.00;;;;6251833;22;20145;-73
2023/06/01 07:23:54;;;;;;;1.58;1.58;;;20.20;99.90;22.10;102229.00;;;;6238598;22;20241;-74
2023/06/01 07:26:30;;;;;;;2.15;1.48;;;20.00;99.90;23.30;102233.00;;;;6251493;22;20141;-72
2023/06/01 07:28:57;;;;;;;4.53;2.15;;;20.10;99.90;19.80;102271.00;;;;6246115;22;20157;-73
2023/06/01 07:32:21;;;;;;;0.25;0.25;;;19.00;99.90;21.80;102238.00;;;;6250934;22;20513;-73
2023/06/01 07:35:06;;;;;;;0.52;0.52;;;18.50;99.90;22.10;102238.00;;;;6249702;22;20157;-73
2023/06/01 07:37:57;;;;;;;2.33;2.20;;;19.40;99.90;21.60;102254.00;;;;6225859;22;20161;-72
2023/06/01 07:40:26;;;;;;;1.73;1.52;;;19.40;99.90;22.20;102234.00;;;;6209344;22;20157;-72
2023/06/01 07:43:12;;;;;;;1.90;1.75;;;19.80;99.90;20.80;102260.00;;;;6226317;22;20185;-73
2023/06/01 07:45:44;;;;;;;0.38;0.38;;;19.20;99.90;22.90;102232.00;;;;6250985;22;20149;-73
2023/06/01 07:48:13;;;;;;;1.75;1.65;;;19.80;99.90;21.30;102260.00;;;;6226046;22;20180;-73
2023/06/01 07:50:45;;;;;;;1.27;1.20;;;19.60;99.90;20.80;102259.00;;;;6252028;22;20141;-73
2023/06/01 07:53:11;;;;;;;2.05;1.90;;;19.00;99.90;21.90;102249.00;;;;6250261;22;20171;-73
2023/06/01 07:55:42;;;;;;;1.27;1.17;;;19.10;99.90;20.50;102261.00;;;;6250759;22;20507;-73
2023/06/01 07:58:14;;;;;;;4.13;2.95;;;18.60;99.90;20.60;102259.00;;;;6249238;22;21400;-73
2023/06/01 08:00:53;;;;;;;2.08;1.98;;;18.70;99.90;23.30;102232.00;;;;6242800;22;20164;-73
2023/06/01 08:03:20;;;;;;;0.60;0.60;;;19.50;99.90;24.00;102209.00;;;;6277264;22;20218;-72
2023/06/01 08:05:50;;;;;;;0.82;0.32;;;20.60;99.90;21.90;102243.00;;;;6276277;22;20133;-73
2023/06/01 08:08:30;;;;;;;0.10;0.10;;;19.80;99.90;24.80;102213.00;;;;6251567;22;20186;-72
2023/06/01 08:11:08;;;;;;;2.03;1.85;;;20.70;99.90;21.70;102248.00;;;;6250261;22;20157;-68
2023/06/01 08:13:47;;;;;;;0.45;0.45;;;19.90;99.90;24.20;102171.00;;;;6277472;22;20228;-74
2023/06/01 08:16:22;;;;;;;4.03;2.13;;;20.40;99.90;24.20;102206.00;;;;6275120;22;20216;-73
2023/06/01 08:18:56;;;;;;;2.97;2.25;;;21.30;99.90;22.80;102172.00;;;;6275259;22;20156;-73
2023/06/01 08:21:29;;;;;;;6.50;2.97;;;20.70;99.90;22.30;102250.00;;;;6275978;22;20159;-74
2023/06/01 08:24:05;;;;;;;11.93;1.80;;;20.20;99.90;22.80;102229.00;;;;6276200;22;20156;-76
2023/06/01 08:26:30;;;;;;;0.10;0.10;;;20.00;99.90;25.50;102191.00;;;;6250976;22;20232;-74
2023/06/01 08:29:07;;;;;;;0.98;0.98;;;21.20;99.90;26.20;102158.00;;;;6274429;22;20188;-75
2023/06/01 08:32:03;;;;;;;3.72;1.00;;;22.30;99.90;25.00;102162.00;;;;6274905;22;20141;-73
2023/06/01 08:34:31;;;;;;;1.10;1.00;;;22.60;99.90;25.40;102174.00;;;;6274658;22;20169;-71
2023/06/01 08:37:23;;;;;;;1.42;1.33;;;22.10;99.90;25.30;102177.00;;;;6275731;22;20153;-71
2023/06/01 08:40:12;;;;;;;0.98;0.98;;;22.90;99.90;24.70;102141.00;;;;6228682;22;20152;-70
2023/06/01 08:43:18;;;;;;;2.05;1.90;;;22.40;99.90;22.40;102234.00;;;;6276397;22;20185;-60
2023/06/01 08:46:29;;;;;;;1.02;0.95;;;20.90;99.90;22.90;102224.00;;;;6277535;22;20149;-72
2023/06/01 08:49:22;;;;;;;1.10;1.08;;;20.10;99.90;24.20;102213.00;;;;6274728;22;20224;-70
2023/06/01 08:52:15;;;;;;;2.45;1.85;;;20.70;99.90;24.50;102213.00;;;;6275608;22;20612;-69
2023/06/01 08:54:44;;;;;;;7.22;2.20;;;21.50;99.90;25.10;102190.00;;;;6158956;23;20163;-70
2023/06/01 08:57:31;;;;;;;4.13;2.03;;;22.60;99.90;24.70;102186.00;;;;6182593;23;20162;-70
2023/06/01 09:00:25;;;;;;;1.45;1.35;;;22.50;99.90;26.80;102159.00;;;;6183033;23;20593;-70
2023/06/01 09:03:05;;;;;;;1.50;1.15;;;23.10;99.90;24.10;102194.00;;;;6158051;23;20257;-68
2023/06/01 09:06:41;;;;;;;1.15;0.88;;;22.20;99.90;21.60;102253.00;;;;6158469;23;20169;-68
2023/06/01 09:09:15;;;;;;;4.38;3.15;;;20.40;99.90;23.00;102215.00;;;;6130746;23;20163;-68
2023/06/01 09:12:10;;;;;;;7.22;1.05;;;20.60;99.90;23.30;102230.00;;;;6132679;23;20541;-68
2023/06/01 09:15:25;;;;;;;1.05;1.05;;;20.60;99.90;24.80;102197.00;;;;6164081;23;20167;-68
2023/06/01 09:18:13;;;;;;;2.20;1.55;;;22.20;99.90;23.60;102227.00;;;;6157958;23;20158;-68
2023/06/01 09:21:57;;;;;;;1.48;1.38;;;21.70;99.90;23.90;102222.00;;;;6134016;23;20167;-68
2023/06/01 09:25:01;;;;;;;4.68;2.75;;;21.20;99.90;24.00;102216.00;;;;6162159;23;20190;-68
2023/06/01 09:28:24;;;;;;;2.40;2.20;;;21.30;99.90;23.90;102148.00;;;;6159931;23;20209;-68
2023/06/01 09:31:57;;;;;;;2.00;1.83;;;20.70;99.90;25.60;102179.00;;;;6172719;22;20488;-68
2023/06/01 09:34:48;;;;;;;1.33;1.23;;;22.70;99.90;24.80;102188.00;;;;6220643;22;20463;-69
2023/06/01 09:37:57;;;;;;;1.75;1.65;;;22.10;99.90;24.10;102202.00;;;;6275406;22;20164;-70
2023/06/01 09:41:02;;;;;;;1.40;1.23;;;22.60;99.90;25.60;102184.00;;;;6248771;22;20192;-70
2023/06/01 09:44:07;;;;;;;0.95;0.60;;;22.10;99.90;24.90;102161.00;;;;6274849;22;20260;-69
2023/06/01 09:47:01;;;;;;;0.90;0.90;;;22.40;99.90;25.60;102100.00;;;;6249485;22;20157;-70
2023/06/01 09:50:02;;;;;;;6.25;1.70;;;22.70;99.90;25.70;102162.00;;;;6227450;22;20149;-70
2023/06/01 09:52:57;;;;;;;0.45;0.45;;;22.60;99.90;27.80;102133.00;;;;6276452;22;20194;-70
2023/06/01 09:55:32;;;;;;;6.68;3.10;;;23.80;99.90;23.90;102199.00;;;;6273479;22;20566;-70
2023/06/01 09:58:40;;;;;;;4.65;2.05;;;22.60;99.90;25.50;102158.00;;;;6275445;22;20228;-70
2023/06/01 10:01:35;;;;;;;6.82;2.47;;;22.60;99.90;23.30;102212.00;;;;6250381;22;20611;-69
2023/06/01 10:04:58;;;;;;;1.42;1.42;;;21.60;99.90;23.80;102207.00;;;;6275506;22;20631;-69
2023/06/01 10:08:07;;;;;;;1.48;1.38;;;21.10;99.90;24.50;102195.00;;;;6275796;22;20202;-71
2023/06/01 10:10:57;;;;;;;2.13;1.85;;;21.90;99.90;25.90;102174.00;;;;6273090;22;20176;-70
2023/06/01 10:14:25;;;;;;;4.47;2.58;;;22.90;99.90;26.80;102149.00;;;;6251037;22;20160;-70
2023/06/01 10:17:42;;;;;;;5.22;1.98;;;23.30;99.90;25.20;102170.00;;;;6275415;22;20251;-69
2023/06/01 10:20:11;;;;;;;9.98;3.35;;;22.90;99.90;24.40;102181.00;;;;6247834;22;20157;-67
2023/06/01 10:33:55;;;;;;;5.63;3.92;;;22.80;99.90;24.80;102155.00;;;;5049646;28;20425;-69
2023/06/01 10:36:53;;;;;;;0.50;0.50;;;22.10;99.90;26.40;102120.00;;;;5040620;28;20189;-68
2023/06/01 10:40:06;;;;;;;1.65;1.55;;;23.40;99.90;26.90;102149.00;;;;5039052;28;20186;-68
2023/06/01 10:43:05;;;;;;;2.40;2.20;;;23.70;99.90;28.20;102121.00;;;;5048949;28;20190;-68
2023/06/01 10:45:54;;;;;;;0.88;0.85;;;25.20;99.90;28.80;102063.00;;;;5006222;28;20190;-68
2023/06/01 10:48:58;;;;;;;1.15;1.10;;;25.10;99.90;26.60;102132.00;;;;5050055;28;20209;-68
2023/06/01 10:51:47;;;;;;;2.17;1.85;;;24.60;99.90;25.10;102093.00;;;;5046227;28;20217;-67
2023/06/01 10:54:36;;;;;;;6.28;5.57;;;23.50;99.90;25.80;102147.00;;;;5046483;28;20182;-67
2023/06/01 11:01:20;;;;;;;0.80;0.73;;;23.00;99.90;24.20;102193.00;;;;4999168;28;20203;-67
2023/06/01 11:03:50;;;;;;;2.10;1.50;;;22.30;99.90;26.20;102156.00;;;;5029230;28;20249;-67
2023/06/01 11:06:42;;;;;;;1.65;1.48;;;23.00;99.90;24.80;102170.00;;;;5029736;28;20621;-67
2023/06/01 11:09:22;;;;;;;0.63;0.63;;;22.90;99.90;26.40;102150.00;;;;5047414;28;20189;-68
2023/06/01 11:11:51;;;;;;;0.35;0.35;;;23.30;99.90;26.00;102150.00;;;;5048054;28;20267;-70
2023/06/01 11:14:29;;;;;;;0.30;0.30;;;22.80;99.90;28.20;102103.00;;;;5049619;28;20190;-71
2023/06/01 11:17:27;;;;;;;2.35;2.25;;;24.10;99.90;28.70;102114.00;;;;5048526;28;20262;-71
2023/06/01 11:19:58;;;;;;;1.30;1.20;;;25.10;99.90;28.10;102036.00;;;;5030303;28;20215;-69
2023/06/01 11:22:46;;;;;;;1.83;1.20;;;25.30;99.90;25.40;102149.00;;;;5048589;28;20758;-68
2023/06/01 11:25:32;;;;;;;2.78;2.53;;;24.30;99.90;25.70;102143.00;;;;5047842;28;20179;-69
2023/06/01 11:28:20;;;;;;;2.33;2.13;;;23.70;99.90;27.50;102128.00;;;;5047666;28;20689;-69
2023/06/01 11:30:55;;;;;;;0.80;0.80;;;24.40;99.90;28.30;102117.00;;;;5049419;28;20236;-69
2023/06/01 11:33:24;;;;;;;5.10;1.40;;;25.00;99.90;28.40;102112.00;;;;5044597;28;20281;-69
2023/06/01 11:36:05;;;;;;;1.40;1.30;;;25.70;99.90;27.10;102137.00;;;;5042125;28;20223;-68
2023/06/01 11:39:00;;;;;;;4.38;3.22;;;24.80;99.90;28.00;102117.00;;;;5047283;28;20244;-67
2023/06/01 11:41:52;;;;;;;6.50;2.10;;;25.50;99.90;27.30;102136.00;;;;5037841;28;20203;-68
2023/06/01 11:44:22;;;;;;;1.75;1.65;;;25.10;99.90;26.90;102142.00;;;;5030567;28;20187;-68
2023/06/01 11:47:14;;;;;;;2.60;2.30;;;24.30;99.90;26.00;102152.00;;;;5012449;28;20187;-66
2023/06/01 11:49:47;;;;;;;7.05;4.25;;;23.50;99.90;28.00;102136.00;;;;5030557;28;20241;-66
2023/06/01 11:52:14;;;;;;;1.13;0.60;;;24.10;99.90;26.80;102157.00;;;;5032193;28;20211;-66
2023/06/01 11:54:40;;;;;;;1.45;1.23;;;24.20;99.90;27.60;102136.00;;;;5033928;28;20559;-66
2023/06/01 11:57:11;;;;;;;1.00;1.00;;;24.00;99.90;27.00;102142.00;;;;5034480;28;20644;-68
2023/06/01 12:00:00;;;;;;;19.67;3.83;;;23.90;99.90;25.80;102152.00;;;;5035486;28;20197;-66
2023/06/01 12:02:46;;;;;;;1.77;1.38;;;24.00;99.90;25.20;102162.00;;;;5046325;28;20241;-68
2023/06/01 12:05:49;;;;;;;3.55;1.52;;;22.80;99.90;25.50;102166.00;;;;5033272;28;20282;-70
2023/06/01 12:08:23;;;;;;;3.25;2.55;;;23.00;99.90;24.60;102151.00;;;;5045409;28;20187;-70
2023/06/01 12:10:52;;;;;;;0.68;0.68;;;22.40;99.90;26.90;102145.00;;;;5023885;28;20260;-71
2023/06/01 12:13:19;;;;;;;2.63;1.48;;;22.90;99.90;25.40;102177.00;;;;5033098;28;20218;-70
2023/06/01 12:15:53;;;;;;;6.93;2.28;;;22.90;99.90;25.60;102170.00;;;;5034287;28;20214;-70
2023/06/01 12:18:32;;;;;;;0.82;0.50;;;22.70;99.90;25.40;102173.00;;;;5016232;28;20189;-72
2023/06/01 12:21:17;;;;;;;2.50;2.30;;;22.60;99.90;25.40;102154.00;;;;5018509;28;20233;-71
2023/06/01 12:23:51;;;;;;;0.52;0.50;;;22.50;99.90;26.60;102151.00;;;;5029699;28;20191;-71
2023/06/01 12:26:36;;;;;;;1.33;1.23;;;23.00;99.90;25.90;102086.00;;;;5027480;28;20179;-71
2023/06/01 12:29:01;;;;;;;1.17;1.08;;;22.90;99.90;25.10;102146.00;;;;5024149;28;20198;-71
2023/06/01 12:31:30;;;;;;;2.13;1.95;;;22.40;99.90;24.50;102171.00;;;;5033037;28;20241;-70
2023/06/01 12:33:56;;;;;;;1.23;1.15;;;22.20;99.90;25.50;102166.00;;;;5052250;28;20189;-70
2023/06/01 12:36:34;;;;;;;1.83;1.67;;;22.20;99.90;25.20;102150.00;;;;5042742;28;20207;-71
2023/06/01 12:39:05;;;;;;;4.72;3.65;;;22.30;99.90;24.50;102173.00;;;;5048148;28;20654;-71
2023/06/01 12:41:31;;;;;;;2.10;1.80;;;22.00;99.90;24.40;102177.00;;;;5051411;28;20572;-71
2023/06/01 12:43:58;;;;;;;0.57;0.57;;;21.90;99.90;25.20;102165.00;;;;5037515;28;20185;-70
2023/06/01 12:46:29;;;;;;;1.60;1.50;;;21.90;99.90;25.00;102179.00;;;;5053182;28;20265;-70
2023/06/01 12:49:22;;;;;;;1.50;1.42;;;22.10;99.90;25.30;102174.00;;;;5053407;28;20186;-69
2023/06/01 12:51:48;;;;;;;9.38;2.90;;;22.20;99.90;24.10;102160.00;;;;5041923;28;20653;-69
2023/06/01 12:54:17;;;;;;;2.28;1.65;;;22.10;99.90;24.80;102184.00;;;;5035775;28;20550;-71
2023/06/01 12:56:47;;;;;;;1.25;1.13;;;22.00;99.90;25.40;102177.00;;;;5036334;28;20175;-69
2023/06/01 12:59:19;;;;;;;0.47;0.47;;;22.20;99.90;24.60;102174.00;;;;5045194;28;20204;-68
2023/06/01 13:01:44;;;;;;;4.50;2.78;;;22.20;99.90;24.60;102176.00;;;;5031545;28;20190;-68
2023/06/01 13:04:10;;;;;;;4.05;2.17;;;22.10;99.90;24.90;102132.00;;;;5043014;28;20196;-70
2023/06/01 13:06:59;;;;;;;3.90;2.45;;;22.00;99.90;25.10;102158.00;;;;5044684;28;20273;-70
2023/06/01 13:10:04;;;;;;;0.43;0.43;;;21.80;99.90;25.30;102146.00;;;;5048247;28;20179;-70
2023/06/01 13:12:40;;;;;;;0.77;0.77;;;22.30;99.90;25.40;102142.00;;;;5053153;28;20663;-68
2023/06/01 13:15:15;;;;;;;2.20;1.10;;;22.30;99.90;26.10;102135.00;;;;5053130;28;20185;-72
2023/06/01 13:17:55;;;;;;;3.63;3.28;;;22.50;99.90;24.90;102146.00;;;;5046464;28;20183;-72
2023/06/01 13:20:25;;;;;;;4.47;3.13;;;22.30;99.90;24.80;102153.00;;;;5046769;28;20251;-71
2023/06/01 13:23:03;;;;;;;1.90;1.73;;;22.20;99.90;24.80;102137.00;;;;5052187;28;20194;-71
2023/06/01 13:25:42;;;;;;;6.47;1.35;;;22.00;99.90;24.30;102158.00;;;;5036403;28;20224;-71
2023/06/01 13:28:08;;;;;;;2.95;2.22;;;21.80;99.90;24.70;102143.00;;;;5052146;28;20636;-70
2023/06/01 13:30:35;;;;;;;2.45;1.40;;;21.80;99.90;25.10;102138.00;;;;5035189;28;20186;-71
2023/06/01 13:33:04;;;;;;;6.82;2.78;;;22.00;99.90;25.30;102136.00;;;;5037024;28;20613;-70
2023/06/01 13:35:31;;;;;;;3.65;2.42;;;22.20;99.90;25.40;102063.00;;;;5031835;28;20632;-70
2023/06/01 13:37:57;;;;;;;2.47;2.03;;;22.30;99.90;25.40;102107.00;;;;5031635;28;20187;-69
2023/06/01 13:40:26;;;;;;;0.80;0.75;;;22.20;99.90;26.20;102120.00;;;;5047931;28;20186;-70
2023/06/01 13:43:00;;;;;;;6.68;1.35;;;22.60;99.90;26.60;102119.00;;;;5052310;28;20308;-70
2023/06/01 13:45:36;;;;;;;2.35;1.67;;;22.80;99.90;25.20;102137.00;;;;5052234;28;20845;-70
2023/06/01 13:48:22;;;;;;;1.80;1.65;;;22.50;99.90;26.00;102119.00;;;;5048325;28;20186;-70
2023/06/01 13:50:48;;;;;;;2.08;1.95;;;22.30;99.90;25.50;102120.00;;;;5034168;28;20187;-71
2023/06/01 13:53:23;;;;;;;0.20;0.20;;;22.50;99.90;25.90;102134.00;;;;5034826;28;20254;-72
2023/06/01 13:56:11;;;;;;;0.43;0.43;;;22.40;99.90;26.40;102111.00;;;;5048763;28;20216;-69
2023/06/01 13:58:45;;;;;;;1.60;1.50;;;22.70;99.90;24.80;102138.00;;;;5050597;28;20585;-68
2023/06/01 14:01:52;;;;;;;2.40;1.65;;;22.20;99.90;26.10;102114.00;;;;5050920;28;20201;-68
2023/06/01 14:04:59;;;;;;;7.35;4.07;;;22.50;99.90;24.30;102164.00;;;;5049873;28;20648;-67
2023/06/01 14:07:25;;;;;;;4.90;2.30;;;22.00;99.90;25.00;102135.00;;;;5051172;28;20242;-69
2023/06/01 14:09:59;;;;;;;4.00;3.58;;;21.90;99.90;25.20;102143.00;;;;5051882;28;20706;-68
2023/06/01 14:12:34;;;;;;;2.33;1.17;;;22.00;99.90;24.30;102147.00;;;;5051560;28;20221;-71
2023/06/01 14:15:22;;;;;;;3.03;2.15;;;21.80;99.90;24.90;102159.00;;;;5065288;28;20189;-70
2023/06/01 14:18:08;;;;;;;1.00;1.00;;;21.70;99.90;25.10;102136.00;;;;5050510;28;20197;-68
2023/06/01 14:20:40;;;;;;;6.55;2.80;;;22.00;99.90;24.70;102150.00;;;;5050371;28;20239;-69
2023/06/01 14:23:24;;;;;;;4.13;2.30;;;21.90;99.90;25.10;102145.00;;;;5066968;28;20344;-72
2023/06/01 14:26:25;;;;;;;2.50;1.73;;;21.90;99.90;25.60;102101.00;;;;5050340;28;20609;-72
2023/06/01 14:29:17;;;;;;;2.40;1.55;;;21.90;99.90;25.60;102139.00;;;;5045801;28;20292;-74
2023/06/01 14:31:59;;;;;;;2.28;1.33;;;22.10;99.90;25.10;102117.00;;;;5051041;28;20221;-75
2023/06/01 14:34:32;;;;;;;0.75;0.40;;;22.00;99.90;25.20;102131.00;;;;5031300;28;20186;-77
2023/06/01 14:37:06;;;;;;;5.43;2.30;;;21.90;99.90;24.40;102134.00;;;;5048727;28;20178;-72
2023/06/01 14:39:32;;;;;;;0.95;0.95;;;21.50;99.90;24.70;102121.00;;;;5042760;28;20197;-77
2023/06/01 14:42:26;;;;;;;7.07;1.35;;;21.50;99.90;24.90;102127.00;;;;5033422;28;20191;-73
2023/06/01 14:44:52;;;;;;;1.25;1.15;;;21.70;99.90;24.10;102081.00;;;;5036967;28;20202;-74
2023/06/01 14:47:18;;;;;;;0.35;0.35;;;21.50;99.90;24.80;102130.00;;;;5036597;28;20191;-77
2023/06/01 14:49:48;;;;;;;5.25;1.88;;;21.30;99.90;24.10;102131.00;;;;5027129;28;20179;-74
2023/06/01 14:52:19;;;;;;;0.28;0.28;;;21.30;99.90;23.90;102146.00;;;;5043701;28;20296;-76
2023/06/01 14:55:12;;;;;;;3.75;1.25;;;20.90;99.90;24.10;102069.00;;;;5034806;28;20190;-74
2023/06/01 14:58:21;;;;;;;1.52;1.42;;;21.10;99.90;23.70;102081.00;;;;5043798;28;20269;-75
2023/06/01 15:01:24;;;;;;;0.40;0.40;;;21.20;99.90;23.50;102035.00;;;;5039380;28;20183;-75
2023/06/01 15:04:37;;;;;;;0.70;0.70;;;21.10;99.90;25.00;102112.00;;;;5035600;28;20263;-75
2023/06/01 15:07:43;;;;;;;0.82;0.82;;;21.10;99.90;24.00;102131.00;;;;5046491;28;20210;-75
2023/06/01 15:10:09;;;;;;;1.10;1.02;;;21.10;99.90;23.80;102134.00;;;;5004035;28;20179;-74
2023/06/01 15:12:36;;;;;;;1.75;1.38;;;20.90;99.90;24.20;102133.00;;;;5048447;28;20247;-74
2023/06/01 15:15:36;;;;;;;4.07;1.98;;;20.80;99.90;24.40;102116.00;;;;5056151;28;20213;-72
2023/06/01 15:18:03;;;;;;;1.33;0.82;;;20.90;99.90;24.90;102112.00;;;;5017762;28;20285;-72
2023/06/01 15:20:59;;;;;;;2.53;1.15;;;21.30;99.90;23.60;102129.00;;;;5047455;28;20214;-74
2023/06/01 15:23:34;;;;;;;4.38;2.15;;;20.90;99.90;24.50;102108.00;;;;5047287;28;20194;-73
2023/06/01 15:26:00;;;;;;;4.97;1.55;;;21.10;99.90;24.70;102111.00;;;;5036373;28;20205;-71
2023/06/01 15:29:06;;;;;;;0.40;0.40;;;21.10;99.90;24.30;102113.00;;;;5038147;28;20186;-75
2023/06/01 15:31:57;;;;;;;1.85;1.75;;;20.90;99.90;23.70;102114.00;;;;5037946;28;20219;-76
2023/06/01 15:34:47;;;;;;;4.00;2.17;;;20.60;99.90;23.40;102139.00;;;;5024682;28;20207;-75
2023/06/01 15:37:33;;;;;;;0.40;0.40;;;20.60;99.90;23.70;102117.00;;;;5006767;28;20528;-78
2023/06/01 15:40:30;;;;;;;0.68;0.68;;;20.70;99.90;23.30;102118.00;;;;4934708;29;20202;-73
2023/06/01 15:42:59;;;;;;;0.17;0.17;;;20.50;99.90;23.70;102065.00;;;;4936303;29;20194;-71
2023/06/01 15:45:33;;;;;;;1.55;1.45;;;20.60;99.90;23.00;102108.00;;;;4918144;29;20543;-70
2023/06/01 15:48:05;;;;;;;1.90;0.63;;;20.40;99.90;23.60;102115.00;;;;4936164;29;20281;-71
2023/06/01 15:50:40;;;;;;;0.40;0.40;;;20.30;99.90;23.20;102094.00;;;;4937228;28;20660;-71
2023/06/01 15:53:11;;;;;;;1.17;0.88;;;20.20;99.90;23.20;102052.00;;;;5024767;28;20329;-71
2023/06/01 15:56:02;;;;;;;5.40;1.77;;;20.20;99.90;22.60;102089.00;;;;5027114;28;20206;-71
2023/06/01 15:59:33;;;;;;;0.68;0.68;;;20.20;99.90;22.60;102089.00;;;;5034139;28;20195;-71
2023/06/01 16:02:03;;;;;;;0.20;0.20;;;20.20;99.90;23.10;102073.00;;;;5023005;28;20229;-72
2023/06/01 16:04:34;;;;;;;2.25;2.05;;;20.10;99.90;22.70;102077.00;;;;5017288;28;20217;-71
2023/06/01 16:07:03;;;;;;;2.55;1.83;;;20.00;99.90;22.70;102057.00;;;;5009534;28;20276;-71
2023/06/01 16:09:32;;;;;;;0.40;0.15;;;19.80;99.90;22.70;102064.00;;;;5033621;28;20710;-72
2023/06/01 16:11:59;;;;;;;0.10;0.10;;;19.80;99.90;22.90;102045.00;;;;5024148;28;20219;-72
2023/06/01 16:14:30;;;;;;;20.30;1.10;;;19.80;99.90;23.10;102054.00;;;;5031675;28;20197;-72
2023/06/01 16:17:16;;;;;;;0.70;0.70;;;19.90;99.90;22.90;102041.00;;;;5014826;28;20273;-72
2023/06/01 16:20:20;;;;;;;1.75;1.65;;;19.90;99.90;22.70;102059.00;;;;5015103;28;20205;-70
2023/06/01 16:22:50;;;;;;;0.33;0.33;;;19.90;99.90;22.50;102029.00;;;;5007911;28;20194;-71
2023/06/01 16:25:27;;;;;;;0.10;0.10;;;19.60;99.90;22.00;101948.00;;;;5012553;28;20204;-70
2023/06/01 16:27:53;;;;;;;3.50;0.97;;;19.50;99.90;23.00;102011.00;;;;5026960;28;20185;-73
2023/06/01 16:30:20;;;;;;;0.43;0.43;;;19.70;99.90;23.20;102022.00;;;;5033660;28;20196;-74
2023/06/01 16:32:46;;;;;;;0.70;0.70;;;19.80;99.90;22.40;102022.00;;;;5013926;28;20210;-72
2023/06/01 16:35:15;;;;;;;0.45;0.45;;;19.50;99.90;21.90;102038.00;;;;5027687;28;20190;-71
2023/06/01 16:37:41;;;;;;;0.30;0.30;;;19.40;99.90;22.00;102019.00;;;;5032906;28;20185;-71
2023/06/01 16:40:19;;;;;;;0.35;0.35;;;19.20;99.90;21.80;102004.00;;;;5034585;28;20186;-72
2023/06/01 16:42:48;;;;;;;1.10;0.57;;;19.10;99.90;21.50;101995.00;;;;5020464;28;20241;-71
2023/06/01 16:45:16;;;;;;;1.57;1.23;;;19.10;99.90;21.60;101988.00;;;;5031948;28;20228;-72
2023/06/01 16:47:42;;;;;;;0.60;0.60;;;19.00;99.90;21.30;101964.00;;;;5011590;28;20569;-72
2023/06/01 16:50:11;;;;;;;1.20;0.83;;;18.80;99.90;21.70;101921.00;;;;5030307;28;20188;-72
2023/06/01 16:53:14;;;;;;;0.80;0.80;;;18.90;99.90;21.80;101987.00;;;;5033796;28;20201;-72
2023/06/01 16:56:00;;;;;;;1.30;0.67;;;18.90;99.90;20.30;101948.00;;;;5025023;28;20655;-72
2023/06/01 16:59:12;;;;;;;0.37;0.37;;;18.40;99.90;21.00;101966.00;;;;5011664;28;20657;-72
2023/06/01 17:02:05;;;;;;;1.33;1.23;;;18.50;99.90;19.80;101947.00;;;;5012017;28;20196;-72
2023/06/01 17:04:45;;;;;;;1.60;1.03;;;18.30;99.90;20.50;101950.00;;;;5028764;28;20186;-72
2023/06/01 17:07:33;;;;;;;0.17;0.17;;;18.00;99.90;20.00;101940.00;;;;5014421;28;20524;-72
2023/06/01 17:10:47;;;;;;;0.50;0.50;;;17.80;99.90;20.80;101948.00;;;;5032960;28;20188;-72
2023/06/01 17:13:58;;;;;;;0.97;0.97;;;17.80;99.90;20.50;101949.00;;;;5026760;28;20209;-72
2023/06/01 17:17:28;;;;;;;1.83;1.73;;;17.80;99.90;20.10;101937.00;;;;5028380;28;20314;-71
2023/06/01 17:20:46;;;;;;;14.53;3.30;;;17.70;99.90;20.40;101925.00;;;;5029606;28;20194;-72
2023/06/01 17:24:13;;;;;;;0.43;0.43;;;17.70;99.90;20.50;101949.00;;;;5013199;28;20213;-72
2023/06/01 17:27:19;;;;;;;1.00;0.77;;;17.80;99.90;20.20;101932.00;;;;5032861;28;20633;-72
2023/06/01 17:30:00;;;;;;;0.77;0.70;;;17.60;99.90;19.40;101924.00;;;;5032072;28;20194;-71
2023/06/01 17:33:18;;;;;;;1.60;1.03;;;17.30;99.90;20.10;101927.00;;;;5038816;28;20222;-72
2023/06/01 17:36:22;;;;;;;2.17;0.97;;;17.40;99.90;19.10;101940.00;;;;5041490;28;20277;-72
2023/06/01 17:39:10;;;;;;;1.13;0.90;;;17.50;99.90;19.30;101929.00;;;;5038927;28;20287;-72
2023/06/01 17:42:31;;;;;;;2.10;1.93;;;17.20;99.90;19.80;101939.00;;;;5048698;28;20182;-72
2023/06/01 17:45:50;;;;;;;0.50;0.50;;;17.10;99.90;19.70;101934.00;;;;5047165;28;20221;-70
2023/06/01 17:48:45;;;;;;;0.53;0.53;;;17.30;99.90;19.20;101948.00;;;;5045490;28;20187;-69
2023/06/01 17:51:14;;;;;;;0.83;0.83;;;17.00;99.90;19.50;101870.00;;;;5044792;28;20197;-70
2023/06/01 17:54:29;;;;;;;0.37;0.37;;;16.90;99.90;19.30;101941.00;;;;5053262;28;20212;-72
2023/06/01 17:57:02;;;;;;;0.40;0.40;;;16.90;99.90;19.00;101930.00;;;;5050071;28;20213;-70
2023/06/01 17:59:31;;;;;;;0.23;0.23;;;16.80;99.90;19.60;101942.00;;;;5050174;28;20590;-71
2023/06/01 18:02:37;;;;;;;0.67;0.67;;;16.90;99.90;19.60;101948.00;;;;5046700;28;20184;-67
2023/06/01 18:05:15;;;;;;;0.20;0.20;;;17.00;99.90;19.00;101905.00;;;;5033402;28;20213;-70
2023/06/01 18:08:04;;;;;;;2.00;1.47;;;16.80;99.90;18.90;101934.00;;;;5035178;28;20194;-73
2023/06/01 18:10:41;;;;;;;1.70;0.97;;;16.70;99.90;18.40;101939.00;;;;5049275;28;20192;-70
2023/06/01 18:14:08;;;;;;;0.40;0.40;;;16.40;99.90;18.30;101936.00;;;;5039161;28;20625;-71
2023/06/01 18:17:11;;;;;;;0.50;0.50;;;16.30;99.90;18.70;101935.00;;;;5051133;28;20658;-72
2023/06/01 18:20:12;;;;;;;0.77;0.77;;;16.40;99.90;18.90;101937.00;;;;5030356;28;20189;-72
2023/06/01 18:23:13;;;;;;;1.23;1.17;;;16.30;99.90;18.40;101930.00;;;;5043975;28;20272;-72
2023/06/01 18:25:59;;;;;;;8.40;5.80;;;16.20;99.90;19.50;101953.00;;;;5031530;28;20184;-71
2023/06/01 18:28:45;;;;;;;0.27;0.27;;;16.50;99.90;18.50;101950.00;;;;5037163;28;20183;-73
2023/06/01 18:31:22;;;;;;;0.20;0.20;;;16.40;99.90;18.30;101926.00;;;;5033871;28;20224;-72
2023/06/01 18:33:56;;;;;;;1.40;1.30;;;16.10;99.90;18.20;101952.00;;;;5050908;28;20193;-72
2023/06/01 18:36:43;;;;;;;0.80;0.80;;;16.10;99.90;18.50;101956.00;;;;5038513;28;20196;-72
2023/06/01 18:39:19;;;;;;;1.73;1.57;;;16.20;99.90;17.90;101949.00;;;;5043304;28;20221;-72
2023/06/01 18:41:52;;;;;;;0.70;0.70;;;15.90;99.90;18.40;101938.00;;;;5052549;28;20198;-71
2023/06/01 18:44:22;;;;;;;1.50;1.40;;;15.90;99.90;18.20;101939.00;;;;5040929;28;20187;-72
2023/06/01 18:46:51;;;;;;;5.00;1.17;;;15.90;99.90;17.80;101939.00;;;;5052989;28;20543;-72
2023/06/01 18:49:32;;;;;;;1.93;1.83;;;15.70;99.90;18.30;101949.00;;;;5066628;28;20602;-71
2023/06/01 18:52:10;;;;;;;0.47;0.47;;;15.70;99.90;18.00;101951.00;;;;5046441;28;20194;-72
2023/06/01 18:55:18;;;;;;;0.10;0.10;;;15.70;99.90;18.70;101925.00;;;;5057538;28;20232;-72
2023/06/01 18:58:28;;;;;;;0.23;0.23;;;15.70;99.90;18.00;101949.00;;;;5053594;28;20189;-72
2023/06/01 19:00:56;;;;;;;1.13;1.03;;;15.80;99.90;18.00;101935.00;;;;5056704;28;20181;-73
2023/06/01 19:04:07;;;;;;;0.40;0.40;;;15.60;99.90;18.60;101951.00;;;;5059658;28;20213;-72
2023/06/01 19:06:59;;;;;;;0.43;0.43;;;15.60;99.90;18.50;101950.00;;;;5047250;28;20678;-72
2023/06/01 19:09:49;;;;;;;0.90;0.90;;;15.70;99.90;18.10;101871.00;;;;5045388;28;20679;-72
2023/06/01 19:12:29;;;;;;;0.20;0.20;;;15.60;99.90;17.50;101934.00;;;;5041745;28;20226;-72
2023/06/01 19:15:19;;;;;;;1.17;0.47;;;15.30;99.90;18.10;101961.00;;;;5048781;28;20211;-72
2023/06/01 19:17:48;;;;;;;4.70;1.10;;;15.30;99.90;17.90;101947.00;;;;5043881;28;20190;-72
2023/06/01 19:20:40;;;;;;;0.80;0.80;;;15.20;99.90;17.60;101922.00;;;;5057265;28;20258;-72